West Hamlin, West Virginia
Current Conditions -  °F | °C
As of 9:51 AM on Thursday 23 Oct 2014 (Local Time) from KHTS Reporting Station
Overcast Overcast  
Wind Chill: 45°   Ceiling: 3900
Heat Index: 48°   Visibility: 7mi
Dew Point: 42°   Wind: 6mph
Humidity: 80%   Direction: 350°N
Pressure: 30.24"   Gusts: NA
Location:  38.29°N, 82.2°W
Report Text: KHTS 231351Z 35005KT 7SM OVC039 09/06 A3024 RMK AO2 SLP240 T00890056
Loading
Personal Weather Stations






























Interactive Weather Map
Tropical Storm Tracking
New forecast layout! Learn more

10-Day Weather Forecast

Advertisements
Track Severe Weather on mobile